Wetterdaten: Januar 2010
Datum Temp. A. Feuchte A. Luftdruck Regen Wind Richtung Taupunkt Windchill Windben
01.01.2010 2,8 C 95 % 996,9 hPa 18,9 l/m 0,0 km/h NW 2,0 C 2,8 C 0,0 km/h
02.01.2010 -2,3 C 85 % 1017,6 hPa 1,8 l/m 3,6 km/h NW -4,6 C -3,5 C 3,6 km/h
03.01.2010 -2,0 C 84 % 1017,3 hPa 0,7 l/m 1,1 km/h W-SW -4,6 C -2,0 C 1,1 km/h
04.01.2010 -3,5 C 88 % 1012,0 hPa 0,0 l/m 0,0 km/h O-SO -5,2 C -3,5 C 0,0 km/h
05.01.2010 -4,0 C 83 % 1002,0 hPa 0,0 l/m 0,0 km/h O-SO -6,6 C -4,0 C 0,0 km/h
06.01.2010 -2,5 C 87 % 1002,0 hPa 0,0 l/m 0,0 km/h O-SO -4,3 C -2,5 C 0,0 km/h
07.01.2010 -2,4 C 90 % 1007,3 hPa 0,0 l/m 0,0 km/h O-SO -3,9 C -2,4 C 0,0 km/h
08.01.2010 -2,3 C 88 % 1005,7 hPa 0,0 l/m 3,2 km/h S-SW -4,1 C -2,3 C 3,2 km/h
09.01.2010 -3,5 C 84 % 1004,7 hPa 0,0 l/m 0,0 km/h N-NO -5,9 C -3,5 C 0,0 km/h
10.01.2010 -3,2 C 85 % 1012,7 hPa 0,0 l/m 0,0 km/h N-NO -5,5 C -3,2 C 0,0 km/h
11.01.2010 -2,8 C 89 % 1015,2 hPa 0,0 l/m 0,0 km/h N-NO -4,4 C -2,8 C 0,0 km/h
12.01.2010 -4,5 C 85 % 1008,7 hPa 0,4 l/m 0,0 km/h N-NO -6,8 C -4,5 C 0,0 km/h
13.01.2010 0,5 C 91 % 1005,2 hPa 0,7 l/m 0,0 km/h W-SW -0,7 C 0,5 C 0,0 km/h
14.01.2010 -0,7 C 95 % 1006,8 hPa 0,4 l/m 0,0 km/h O-SO -1,5 C -0,7 C 0,0 km/h
15.01.2010 0,8 C 92 % 1021,3 hPa 0,4 l/m 0,0 km/h W-NW -0,4 C 0,8 C 0,0 km/h
16.01.2010 0,9 C 88 % 1014,7 hPa 2,1 l/m 1,5 km/h NO -0,8 C 0,9 C 1,5 km/h
17.01.2010 5,1 C 85 % 1019,4 hPa 0,7 l/m 10,3 km/h S-SW 2,7 C 1,4 C 10,3 km/h
18.01.2010 1,7 C 88 % 1024,6 hPa 0,0 l/m 0,0 km/h O-NO -0,1 C 1,7 C 0,0 km/h
19.01.2010 -1,5 C 94 % 1019,6 hPa 0,0 l/m 0,0 km/h SW -2,3 C -1,5 C 0,0 km/h
20.01.2010 -1,0 C 93 % 1013,3 hPa 0,0 l/m 0,0 km/h SW -1,9 C -1,0 C 0,0 km/h
21.01.2010 3,3 C 92 % 1020,1 hPa 0,7 l/m 0,0 km/h O-NO 2,0 C 3,3 C 0,0 km/h
22.01.2010 2,1 C 94 % 1022,2 hPa 0,0 l/m 0,0 km/h W 1,3 C 2,1 C 0,0 km/h
23.01.2010 -0,3 C 86 % 1020,2 hPa 0,0 l/m 0,1 km/h O -2,6 C -0,3 C 0,1 km/h
24.01.2010 1,5 C 89 % 1020,5 hPa 0,0 l/m 0,0 km/h NO -0,3 C 1,5 C 0,0 km/h
25.01.2010 1,0 C 91 % 1026,2 hPa 3,9 l/m 1,8 km/h W -0,4 C 1,0 C 1,8 km/h
26.01.2010 -1,8 C 84 % 1029,4 hPa 0,0 l/m 0,0 km/h W-SW -4,1 C -1,8 C 0,0 km/h
27.01.2010 -3,3 C 82 % 1022,8 hPa 0,0 l/m 0,0 km/h W -6,0 C -3,3 C 0,0 km/h
28.01.2010 -0,4 C 86 % 1007,9 hPa 0,0 l/m 13,3 km/h W -2,5 C -6,3 C 13,3 km/h
29.01.2010 2,3 C 85 % 989,0 hPa 0,7 l/m 21,6 km/h SW 0,1 C -7,1 C 21,6 km/h
30.01.2010 -1,2 C 89 % 996,5 hPa 0,4 l/m 2,3 km/h W -2,9 C -1,9 C 2,3 km/h
31.01.2010 -3,3 C 90 % 1007,7 hPa 0,0 l/m 0,0 km/h O-SO -4,7 C -3,3 C 0,0 km/h
Min-Datum 12.01.10 03.01.10 29.01.10 13 Tage 01.01.10 - 12.01.10 28.01.10 01.01.10
Min-Zeit 21:53 15:53 20:53 - 13:53 - 21:53 06:53 13:53
Minimum -9,7 C 61 % 984,4 hPa - 0,0 km/h - -11,0 C -13,1 C 0,0 km/h
Max-Datum 18.01.10 21.01.10 26.01.10 01.01.10 17.01.10 - 18.01.10 18.01.10 17.01.10
Max-Zeit 13:53 10:53 22:53 13:53 10:53 - 11:53 13:53 10:53
Maximum 10,9 C 96 % 1030,5 hPa 18,9 l/m 28,4 km/h
S-SW
- 6,4 C 10,9 C 28,4 km/h
S-SW
Durchschnitt -0,8 C 88 % 1012,6 hPa #31,7 l/m 1,9 km/h O-SO -2,6 C -1,5 C 1,9 km/h

Durchschnitt Minimum Temp.-3,7 C
Durchschnitt Maximum Temp.2,5 C